sensor_id;sensor_type;location;lat;lon;timestamp;P1;durP1;ratioP1;P2;durP2;ratioP2
9076;SDS011;4574;51.072;17.174;2023-08-24T00:02:28;5.90;;;3.57;;
9076;SDS011;4574;51.072;17.174;2023-08-24T00:04:56;6.03;;;3.67;;
9076;SDS011;4574;51.072;17.174;2023-08-24T00:07:25;4.37;;;3.40;;
9076;SDS011;4574;51.072;17.174;2023-08-24T00:09:54;7.10;;;3.50;;
9076;SDS011;4574;51.072;17.174;2023-08-24T00:12:23;7.43;;;3.53;;
9076;SDS011;4574;51.072;17.174;2023-08-24T00:14:53;7.43;;;3.40;;
9076;SDS011;4574;51.072;17.174;2023-08-24T00:17:22;8.20;;;3.50;;
9076;SDS011;4574;51.072;17.174;2023-08-24T00:19:51;3.37;;;3.07;;
9076;SDS011;4574;51.072;17.174;2023-08-24T00:22:20;4.63;;;3.47;;
9076;SDS011;4574;51.072;17.174;2023-08-24T00:24:48;6.27;;;3.60;;
9076;SDS011;4574;51.072;17.174;2023-08-24T00:27:16;7.57;;;3.53;;
9076;SDS011;4574;51.072;17.174;2023-08-24T00:29:45;5.77;;;3.60;;
9076;SDS011;4574;51.072;17.174;2023-08-24T00:32:15;7.77;;;3.67;;
9076;SDS011;4574;51.072;17.174;2023-08-24T00:34:44;7.53;;;3.67;;
9076;SDS011;4574;51.072;17.174;2023-08-24T00:37:13;6.53;;;3.77;;
9076;SDS011;4574;51.072;17.174;2023-08-24T00:39:41;4.77;;;3.37;;
9076;SDS011;4574;51.072;17.174;2023-08-24T00:42:10;7.80;;;4.13;;
9076;SDS011;4574;51.072;17.174;2023-08-24T00:44:41;5.20;;;3.77;;
9076;SDS011;4574;51.072;17.174;2023-08-24T00:47:10;6.63;;;3.83;;
9076;SDS011;4574;51.072;17.174;2023-08-24T00:49:41;6.40;;;3.40;;
9076;SDS011;4574;51.072;17.174;2023-08-24T00:52:09;4.50;;;3.77;;
9076;SDS011;4574;51.072;17.174;2023-08-24T00:54:38;5.17;;;4.07;;
9076;SDS011;4574;51.072;17.174;2023-08-24T00:57:07;5.90;;;3.73;;
9076;SDS011;4574;51.072;17.174;2023-08-24T00:59:36;8.67;;;3.60;;
9076;SDS011;4574;51.072;17.174;2023-08-24T01:02:05;4.13;;;3.37;;
9076;SDS011;4574;51.072;17.174;2023-08-24T01:04:34;7.33;;;3.33;;
9076;SDS011;4574;51.072;17.174;2023-08-24T01:07:04;5.90;;;3.70;;
9076;SDS011;4574;51.072;17.174;2023-08-24T01:09:33;6.00;;;4.17;;
9076;SDS011;4574;51.072;17.174;2023-08-24T01:12:04;7.90;;;3.97;;
9076;SDS011;4574;51.072;17.174;2023-08-24T01:14:40;5.20;;;3.20;;
9076;SDS011;4574;51.072;17.174;2023-08-24T01:17:20;4.83;;;2.90;;
9076;SDS011;4574;51.072;17.174;2023-08-24T01:19:54;5.80;;;3.10;;
9076;SDS011;4574;51.072;17.174;2023-08-24T01:22:33;5.57;;;3.70;;
9076;SDS011;4574;51.072;17.174;2023-08-24T01:25:10;5.80;;;3.53;;
9076;SDS011;4574;51.072;17.174;2023-08-24T01:27:45;4.83;;;3.10;;
9076;SDS011;4574;51.072;17.174;2023-08-24T01:30:17;6.23;;;3.50;;
9076;SDS011;4574;51.072;17.174;2023-08-24T01:32:46;6.73;;;3.43;;
9076;SDS011;4574;51.072;17.174;2023-08-24T01:35:15;5.43;;;3.40;;
9076;SDS011;4574;51.072;17.174;2023-08-24T01:37:43;4.90;;;2.80;;
9076;SDS011;4574;51.072;17.174;2023-08-24T01:40:13;5.73;;;3.60;;
9076;SDS011;4574;51.072;17.174;2023-08-24T01:42:48;6.50;;;3.40;;
9076;SDS011;4574;51.072;17.174;2023-08-24T01:45:20;6.93;;;3.37;;
9076;SDS011;4574;51.072;17.174;2023-08-24T01:47:52;5.53;;;3.07;;
9076;SDS011;4574;51.072;17.174;2023-08-24T01:50:23;3.67;;;3.27;;
9076;SDS011;4574;51.072;17.174;2023-08-24T01:52:57;4.63;;;3.33;;
9076;SDS011;4574;51.072;17.174;2023-08-24T01:55:26;4.33;;;3.40;;
9076;SDS011;4574;51.072;17.174;2023-08-24T01:57:56;5.93;;;3.30;;
9076;SDS011;4574;51.072;17.174;2023-08-24T02:00:25;4.47;;;3.20;;
9076;SDS011;4574;51.072;17.174;2023-08-24T02:02:53;6.43;;;3.27;;
9076;SDS011;4574;51.072;17.174;2023-08-24T02:05:22;4.13;;;2.70;;
9076;SDS011;4574;51.072;17.174;2023-08-24T02:07:54;4.07;;;3.07;;
9076;SDS011;4574;51.072;17.174;2023-08-24T02:10:23;4.53;;;3.17;;
9076;SDS011;4574;51.072;17.174;2023-08-24T02:12:52;5.93;;;3.40;;
9076;SDS011;4574;51.072;17.174;2023-08-24T02:15:22;5.20;;;3.70;;
9076;SDS011;4574;51.072;17.174;2023-08-24T02:17:51;4.20;;;3.10;;
9076;SDS011;4574;51.072;17.174;2023-08-24T02:20:19;5.37;;;3.33;;
9076;SDS011;4574;51.072;17.174;2023-08-24T02:22:48;5.67;;;3.27;;
9076;SDS011;4574;51.072;17.174;2023-08-24T02:25:16;3.87;;;2.80;;
9076;SDS011;4574;51.072;17.174;2023-08-24T02:27:45;4.20;;;2.77;;
9076;SDS011;4574;51.072;17.174;2023-08-24T02:30:15;6.13;;;3.70;;
9076;SDS011;4574;51.072;17.174;2023-08-24T02:32:45;4.77;;;3.00;;
9076;SDS011;4574;51.072;17.174;2023-08-24T02:35:13;3.30;;;3.00;;
9076;SDS011;4574;51.072;17.174;2023-08-24T02:37:44;4.67;;;2.80;;
9076;SDS011;4574;51.072;17.174;2023-08-24T02:40:13;5.70;;;3.00;;
9076;SDS011;4574;51.072;17.174;2023-08-24T02:42:43;3.93;;;3.03;;
9076;SDS011;4574;51.072;17.174;2023-08-24T02:45:14;4.03;;;3.00;;
9076;SDS011;4574;51.072;17.174;2023-08-24T02:47:45;6.13;;;3.43;;
9076;SDS011;4574;51.072;17.174;2023-08-24T02:50:13;5.47;;;3.10;;
9076;SDS011;4574;51.072;17.174;2023-08-24T02:52:42;3.23;;;2.63;;
9076;SDS011;4574;51.072;17.174;2023-08-24T02:55:10;4.87;;;3.00;;
9076;SDS011;4574;51.072;17.174;2023-08-24T02:57:39;4.23;;;3.07;;
9076;SDS011;4574;51.072;17.174;2023-08-24T03:00:08;4.93;;;3.40;;
9076;SDS011;4574;51.072;17.174;2023-08-24T03:02:40;3.83;;;3.20;;
9076;SDS011;4574;51.072;17.174;2023-08-24T03:05:10;3.90;;;2.80;;
9076;SDS011;4574;51.072;17.174;2023-08-24T03:07:39;4.50;;;3.07;;
9076;SDS011;4574;51.072;17.174;2023-08-24T03:10:07;12.37;;;3.13;;
9076;SDS011;4574;51.072;17.174;2023-08-24T03:12:36;4.37;;;3.10;;
9076;SDS011;4574;51.072;17.174;2023-08-24T03:15:05;6.40;;;3.00;;
9076;SDS011;4574;51.072;17.174;2023-08-24T03:17:34;3.70;;;3.30;;
9076;SDS011;4574;51.072;17.174;2023-08-24T03:20:03;8.13;;;3.80;;
9076;SDS011;4574;51.072;17.174;2023-08-24T03:22:33;6.63;;;4.07;;
9076;SDS011;4574;51.072;17.174;2023-08-24T03:25:02;6.70;;;3.80;;
9076;SDS011;4574;51.072;17.174;2023-08-24T03:27:31;5.60;;;4.30;;
9076;SDS011;4574;51.072;17.174;2023-08-24T03:30:00;5.73;;;4.20;;
9076;SDS011;4574;51.072;17.174;2023-08-24T03:32:30;4.70;;;4.10;;
9076;SDS011;4574;51.072;17.174;2023-08-24T03:34:59;6.77;;;4.37;;
9076;SDS011;4574;51.072;17.174;2023-08-24T03:37:29;5.17;;;3.73;;
9076;SDS011;4574;51.072;17.174;2023-08-24T03:39:59;6.80;;;3.43;;
9076;SDS011;4574;51.072;17.174;2023-08-24T03:42:29;7.73;;;3.93;;
9076;SDS011;4574;51.072;17.174;2023-08-24T03:44:59;6.63;;;3.70;;
9076;SDS011;4574;51.072;17.174;2023-08-24T03:47:27;4.60;;;3.83;;
9076;SDS011;4574;51.072;17.174;2023-08-24T03:49:56;5.57;;;3.30;;
9076;SDS011;4574;51.072;17.174;2023-08-24T03:52:24;6.00;;;3.67;;
9076;SDS011;4574;51.072;17.174;2023-08-24T03:54:54;3.73;;;3.33;;
9076;SDS011;4574;51.072;17.174;2023-08-24T03:57:24;7.60;;;4.10;;
9076;SDS011;4574;51.072;17.174;2023-08-24T03:59:52;4.37;;;3.53;;
9076;SDS011;4574;51.072;17.174;2023-08-24T04:02:21;4.20;;;3.43;;
9076;SDS011;4574;51.072;17.174;2023-08-24T04:04:50;3.47;;;3.17;;
9076;SDS011;4574;51.072;17.174;2023-08-24T04:07:19;6.30;;;3.83;;
9076;SDS011;4574;51.072;17.174;2023-08-24T04:09:47;5.20;;;3.20;;
9076;SDS011;4574;51.072;17.174;2023-08-24T04:12:16;5.03;;;4.00;;
9076;SDS011;4574;51.072;17.174;2023-08-24T04:14:45;6.43;;;3.70;;
9076;SDS011;4574;51.072;17.174;2023-08-24T04:17:14;4.73;;;3.63;;
9076;SDS011;4574;51.072;17.174;2023-08-24T04:19:43;4.23;;;3.47;;
9076;SDS011;4574;51.072;17.174;2023-08-24T04:22:12;3.43;;;3.13;;
9076;SDS011;4574;51.072;17.174;2023-08-24T04:24:40;10.87;;;4.27;;
9076;SDS011;4574;51.072;17.174;2023-08-24T04:27:10;4.00;;;3.43;;
9076;SDS011;4574;51.072;17.174;2023-08-24T04:29:39;6.03;;;4.30;;
9076;SDS011;4574;51.072;17.174;2023-08-24T04:32:09;7.53;;;4.50;;
9076;SDS011;4574;51.072;17.174;2023-08-24T04:34:38;5.83;;;3.90;;
9076;SDS011;4574;51.072;17.174;2023-08-24T04:37:06;5.47;;;3.80;;
9076;SDS011;4574;51.072;17.174;2023-08-24T04:39:35;7.97;;;3.80;;
9076;SDS011;4574;51.072;17.174;2023-08-24T04:42:04;4.63;;;3.60;;
9076;SDS011;4574;51.072;17.174;2023-08-24T04:44:33;6.27;;;4.23;;
9076;SDS011;4574;51.072;17.174;2023-08-24T04:47:02;6.87;;;4.10;;
9076;SDS011;4574;51.072;17.174;2023-08-24T04:49:32;8.83;;;5.03;;
9076;SDS011;4574;51.072;17.174;2023-08-24T04:52:01;6.37;;;4.07;;
9076;SDS011;4574;51.072;17.174;2023-08-24T04:54:29;7.07;;;4.73;;
9076;SDS011;4574;51.072;17.174;2023-08-24T04:56:58;7.23;;;4.30;;
9076;SDS011;4574;51.072;17.174;2023-08-24T04:59:26;8.23;;;4.50;;
9076;SDS011;4574;51.072;17.174;2023-08-24T05:01:55;5.37;;;4.43;;
9076;SDS011;4574;51.072;17.174;2023-08-24T05:04:23;6.60;;;4.73;;
9076;SDS011;4574;51.072;17.174;2023-08-24T05:06:53;6.87;;;4.60;;
9076;SDS011;4574;51.072;17.174;2023-08-24T05:09:21;6.50;;;4.90;;
9076;SDS011;4574;51.072;17.174;2023-08-24T05:11:50;5.70;;;4.60;;
9076;SDS011;4574;51.072;17.174;2023-08-24T05:14:19;6.97;;;4.80;;
9076;SDS011;4574;51.072;17.174;2023-08-24T05:16:47;8.40;;;4.73;;
9076;SDS011;4574;51.072;17.174;2023-08-24T05:19:16;9.43;;;4.90;;
9076;SDS011;4574;51.072;17.174;2023-08-24T05:21:44;9.80;;;5.80;;
9076;SDS011;4574;51.072;17.174;2023-08-24T05:24:15;5.53;;;4.93;;
9076;SDS011;4574;51.072;17.174;2023-08-24T05:26:43;9.33;;;5.33;;
9076;SDS011;4574;51.072;17.174;2023-08-24T05:29:12;8.93;;;4.97;;
9076;SDS011;4574;51.072;17.174;2023-08-24T05:31:41;8.93;;;5.47;;
9076;SDS011;4574;51.072;17.174;2023-08-24T05:34:09;8.97;;;5.67;;
9076;SDS011;4574;51.072;17.174;2023-08-24T05:36:38;11.90;;;6.23;;
9076;SDS011;4574;51.072;17.174;2023-08-24T05:39:06;11.00;;;5.03;;
9076;SDS011;4574;51.072;17.174;2023-08-24T05:41:38;8.40;;;4.90;;
9076;SDS011;4574;51.072;17.174;2023-08-24T05:44:06;8.07;;;4.90;;
9076;SDS011;4574;51.072;17.174;2023-08-24T05:46:35;11.07;;;4.93;;
9076;SDS011;4574;51.072;17.174;2023-08-24T05:49:04;11.40;;;5.13;;
9076;SDS011;4574;51.072;17.174;2023-08-24T05:51:33;9.43;;;5.10;;
9076;SDS011;4574;51.072;17.174;2023-08-24T05:54:01;7.80;;;5.13;;
9076;SDS011;4574;51.072;17.174;2023-08-24T05:56:32;7.67;;;5.03;;
9076;SDS011;4574;51.072;17.174;2023-08-24T05:59:02;6.67;;;5.30;;
9076;SDS011;4574;51.072;17.174;2023-08-24T06:01:32;11.93;;;5.20;;
9076;SDS011;4574;51.072;17.174;2023-08-24T06:04:00;8.90;;;5.27;;
9076;SDS011;4574;51.072;17.174;2023-08-24T06:06:29;9.53;;;5.20;;
9076;SDS011;4574;51.072;17.174;2023-08-24T06:08:58;7.80;;;5.03;;
9076;SDS011;4574;51.072;17.174;2023-08-24T06:11:26;8.37;;;5.13;;
9076;SDS011;4574;51.072;17.174;2023-08-24T06:13:54;6.30;;;4.73;;
9076;SDS011;4574;51.072;17.174;2023-08-24T06:16:24;6.73;;;4.97;;
9076;SDS011;4574;51.072;17.174;2023-08-24T06:18:53;6.93;;;4.50;;
9076;SDS011;4574;51.072;17.174;2023-08-24T06:21:22;11.83;;;6.03;;
9076;SDS011;4574;51.072;17.174;2023-08-24T06:23:50;8.67;;;5.30;;
9076;SDS011;4574;51.072;17.174;2023-08-24T06:26:19;8.90;;;5.53;;
9076;SDS011;4574;51.072;17.174;2023-08-24T06:28:47;8.37;;;5.60;;
9076;SDS011;4574;51.072;17.174;2023-08-24T06:31:16;9.80;;;5.00;;
9076;SDS011;4574;51.072;17.174;2023-08-24T06:33:46;9.97;;;5.00;;
9076;SDS011;4574;51.072;17.174;2023-08-24T06:36:15;11.60;;;5.17;;
9076;SDS011;4574;51.072;17.174;2023-08-24T06:38:43;10.53;;;4.90;;
9076;SDS011;4574;51.072;17.174;2023-08-24T06:41:12;7.23;;;4.40;;
9076;SDS011;4574;51.072;17.174;2023-08-24T06:43:40;9.53;;;5.23;;
9076;SDS011;4574;51.072;17.174;2023-08-24T06:46:09;8.07;;;4.60;;
9076;SDS011;4574;51.072;17.174;2023-08-24T06:48:38;10.97;;;4.90;;
9076;SDS011;4574;51.072;17.174;2023-08-24T06:51:10;7.43;;;4.43;;
9076;SDS011;4574;51.072;17.174;2023-08-24T06:53:38;7.30;;;3.83;;
9076;SDS011;4574;51.072;17.174;2023-08-24T06:56:09;6.93;;;4.50;;
9076;SDS011;4574;51.072;17.174;2023-08-24T06:58:38;5.40;;;3.57;;
9076;SDS011;4574;51.072;17.174;2023-08-24T07:01:07;4.80;;;3.10;;
9076;SDS011;4574;51.072;17.174;2023-08-24T07:03:35;5.80;;;3.27;;
9076;SDS011;4574;51.072;17.174;2023-08-24T07:06:05;6.17;;;3.30;;
9076;SDS011;4574;51.072;17.174;2023-08-24T07:08:35;5.60;;;3.33;;
9076;SDS011;4574;51.072;17.174;2023-08-24T07:11:04;4.40;;;3.43;;
9076;SDS011;4574;51.072;17.174;2023-08-24T07:13:33;4.47;;;2.60;;
9076;SDS011;4574;51.072;17.174;2023-08-24T07:16:02;4.27;;;2.47;;
9076;SDS011;4574;51.072;17.174;2023-08-24T07:18:31;3.67;;;2.70;;
9076;SDS011;4574;51.072;17.174;2023-08-24T07:20:59;7.00;;;3.03;;
9076;SDS011;4574;51.072;17.174;2023-08-24T07:23:28;6.87;;;3.03;;
9076;SDS011;4574;51.072;17.174;2023-08-24T07:25:58;5.70;;;2.83;;
9076;SDS011;4574;51.072;17.174;2023-08-24T07:28:26;9.47;;;3.43;;
9076;SDS011;4574;51.072;17.174;2023-08-24T07:30:55;4.97;;;3.00;;
9076;SDS011;4574;51.072;17.174;2023-08-24T07:33:24;8.77;;;3.13;;
9076;SDS011;4574;51.072;17.174;2023-08-24T07:35:53;4.07;;;2.77;;
9076;SDS011;4574;51.072;17.174;2023-08-24T07:38:22;6.23;;;3.00;;
9076;SDS011;4574;51.072;17.174;2023-08-24T07:40:50;3.70;;;2.83;;
9076;SDS011;4574;51.072;17.174;2023-08-24T07:43:20;9.97;;;2.87;;
9076;SDS011;4574;51.072;17.174;2023-08-24T07:45:49;6.53;;;2.60;;
9076;SDS011;4574;51.072;17.174;2023-08-24T07:48:18;5.03;;;2.30;;
9076;SDS011;4574;51.072;17.174;2023-08-24T07:50:47;4.33;;;2.40;;
9076;SDS011;4574;51.072;17.174;2023-08-24T07:53:15;5.30;;;2.20;;
9076;SDS011;4574;51.072;17.174;2023-08-24T07:55:44;3.00;;;1.83;;
9076;SDS011;4574;51.072;17.174;2023-08-24T07:58:12;3.77;;;2.10;;
9076;SDS011;4574;51.072;17.174;2023-08-24T08:00:42;5.80;;;2.07;;
9076;SDS011;4574;51.072;17.174;2023-08-24T08:03:11;4.93;;;2.50;;
9076;SDS011;4574;51.072;17.174;2023-08-24T08:05:40;4.87;;;1.77;;
9076;SDS011;4574;51.072;17.174;2023-08-24T08:08:08;2.90;;;1.93;;
9076;SDS011;4574;51.072;17.174;2023-08-24T08:10:37;2.10;;;1.90;;
9076;SDS011;4574;51.072;17.174;2023-08-24T08:13:06;6.07;;;2.10;;
9076;SDS011;4574;51.072;17.174;2023-08-24T08:15:35;6.90;;;2.10;;
9076;SDS011;4574;51.072;17.174;2023-08-24T08:18:06;2.53;;;2.00;;
9076;SDS011;4574;51.072;17.174;2023-08-24T08:20:35;3.57;;;1.80;;
9076;SDS011;4574;51.072;17.174;2023-08-24T08:23:03;2.10;;;1.80;;
9076;SDS011;4574;51.072;17.174;2023-08-24T08:25:32;1.97;;;1.80;;
9076;SDS011;4574;51.072;17.174;2023-08-24T08:28:01;1.97;;;1.60;;
9076;SDS011;4574;51.072;17.174;2023-08-24T08:30:29;7.63;;;1.80;;
9076;SDS011;4574;51.072;17.174;2023-08-24T08:32:58;1.90;;;1.50;;
9076;SDS011;4574;51.072;17.174;2023-08-24T08:35:29;1.87;;;1.73;;
9076;SDS011;4574;51.072;17.174;2023-08-24T08:37:57;5.40;;;1.70;;
9076;SDS011;4574;51.072;17.174;2023-08-24T08:40:26;2.60;;;1.70;;
9076;SDS011;4574;51.072;17.174;2023-08-24T08:42:58;2.20;;;1.87;;
9076;SDS011;4574;51.072;17.174;2023-08-24T08:45:26;3.37;;;1.60;;
9076;SDS011;4574;51.072;17.174;2023-08-24T08:47:57;2.10;;;1.60;;
9076;SDS011;4574;51.072;17.174;2023-08-24T08:50:27;3.27;;;1.87;;
9076;SDS011;4574;51.072;17.174;2023-08-24T08:52:59;2.17;;;1.80;;
9076;SDS011;4574;51.072;17.174;2023-08-24T08:55:28;3.87;;;1.73;;
9076;SDS011;4574;51.072;17.174;2023-08-24T08:57:58;4.63;;;1.80;;
9076;SDS011;4574;51.072;17.174;2023-08-24T09:00:28;2.00;;;1.60;;
9076;SDS011;4574;51.072;17.174;2023-08-24T09:02:59;3.07;;;1.50;;
9076;SDS011;4574;51.072;17.174;2023-08-24T09:05:31;3.33;;;1.43;;
9076;SDS011;4574;51.072;17.174;2023-08-24T09:08:00;1.87;;;1.50;;
9076;SDS011;4574;51.072;17.174;2023-08-24T09:10:30;3.33;;;1.50;;
9076;SDS011;4574;51.072;17.174;2023-08-24T09:12:58;2.53;;;1.77;;
9076;SDS011;4574;51.072;17.174;2023-08-24T09:15:27;4.33;;;1.87;;
9076;SDS011;4574;51.072;17.174;2023-08-24T09:18:02;7.17;;;1.70;;
9076;SDS011;4574;51.072;17.174;2023-08-24T09:20:33;4.00;;;1.37;;
9076;SDS011;4574;51.072;17.174;2023-08-24T09:23:02;2.70;;;1.60;;
9076;SDS011;4574;51.072;17.174;2023-08-24T09:25:31;2.17;;;1.47;;
9076;SDS011;4574;51.072;17.174;2023-08-24T09:28:00;1.83;;;1.67;;
9076;SDS011;4574;51.072;17.174;2023-08-24T09:30:34;6.33;;;1.40;;
9076;SDS011;4574;51.072;17.174;2023-08-24T09:33:04;2.40;;;1.97;;
9076;SDS011;4574;51.072;17.174;2023-08-24T09:35:41;2.70;;;1.70;;
9076;SDS011;4574;51.072;17.174;2023-08-24T09:38:18;3.97;;;1.73;;
9076;SDS011;4574;51.072;17.174;2023-08-24T09:40:48;5.13;;;1.63;;
9076;SDS011;4574;51.072;17.174;2023-08-24T09:43:19;3.80;;;1.97;;
9076;SDS011;4574;51.072;17.174;2023-08-24T09:45:48;2.90;;;1.60;;
9076;SDS011;4574;51.072;17.174;2023-08-24T09:48:18;1.77;;;1.60;;
9076;SDS011;4574;51.072;17.174;2023-08-24T09:50:49;2.30;;;1.60;;
9076;SDS011;4574;51.072;17.174;2023-08-24T09:53:19;1.97;;;1.77;;
9076;SDS011;4574;51.072;17.174;2023-08-24T09:55:49;1.70;;;1.60;;
9076;SDS011;4574;51.072;17.174;2023-08-24T09:58:22;4.00;;;1.67;;
9076;SDS011;4574;51.072;17.174;2023-08-24T10:00:51;2.00;;;1.63;;
9076;SDS011;4574;51.072;17.174;2023-08-24T10:03:20;3.03;;;2.00;;
9076;SDS011;4574;51.072;17.174;2023-08-24T10:05:54;2.93;;;1.60;;
9076;SDS011;4574;51.072;17.174;2023-08-24T10:08:35;2.77;;;1.90;;
9076;SDS011;4574;51.072;17.174;2023-08-24T10:11:05;4.07;;;1.50;;
9076;SDS011;4574;51.072;17.174;2023-08-24T10:13:35;4.90;;;1.90;;
9076;SDS011;4574;51.072;17.174;2023-08-24T10:16:08;3.10;;;2.00;;
9076;SDS011;4574;51.072;17.174;2023-08-24T10:18:40;4.07;;;1.70;;
9076;SDS011;4574;51.072;17.174;2023-08-24T10:21:10;3.47;;;2.10;;
9076;SDS011;4574;51.072;17.174;2023-08-24T10:23:39;2.20;;;1.80;;
9076;SDS011;4574;51.072;17.174;2023-08-24T10:26:10;2.37;;;1.67;;
9076;SDS011;4574;51.072;17.174;2023-08-24T10:28:40;3.33;;;1.90;;
9076;SDS011;4574;51.072;17.174;2023-08-24T10:31:11;4.00;;;2.13;;
9076;SDS011;4574;51.072;17.174;2023-08-24T10:33:40;2.03;;;1.83;;
9076;SDS011;4574;51.072;17.174;2023-08-24T10:36:12;2.70;;;1.80;;
9076;SDS011;4574;51.072;17.174;2023-08-24T10:38:41;3.67;;;1.60;;
9076;SDS011;4574;51.072;17.174;2023-08-24T10:41:10;2.87;;;2.17;;
9076;SDS011;4574;51.072;17.174;2023-08-24T10:43:42;3.40;;;1.77;;
9076;SDS011;4574;51.072;17.174;2023-08-24T10:46:17;1.80;;;1.70;;
9076;SDS011;4574;51.072;17.174;2023-08-24T10:48:58;3.50;;;1.80;;
9076;SDS011;4574;51.072;17.174;2023-08-24T10:51:29;3.77;;;1.93;;
9076;SDS011;4574;51.072;17.174;2023-08-24T10:53:58;3.97;;;1.73;;
9076;SDS011;4574;51.072;17.174;2023-08-24T10:56:34;3.77;;;2.27;;
9076;SDS011;4574;51.072;17.174;2023-08-24T10:59:12;2.77;;;1.93;;
9076;SDS011;4574;51.072;17.174;2023-08-24T11:01:42;3.47;;;1.93;;
9076;SDS011;4574;51.072;17.174;2023-08-24T11:04:22;2.50;;;1.70;;
9076;SDS011;4574;51.072;17.174;2023-08-24T11:06:52;3.13;;;2.00;;
9076;SDS011;4574;51.072;17.174;2023-08-24T11:09:22;2.83;;;2.10;;
9076;SDS011;4574;51.072;17.174;2023-08-24T11:11:58;2.30;;;2.00;;
9076;SDS011;4574;51.072;17.174;2023-08-24T11:14:28;5.30;;;2.07;;
9076;SDS011;4574;51.072;17.174;2023-08-24T11:16:58;2.40;;;2.00;;
9076;SDS011;4574;51.072;17.174;2023-08-24T11:19:29;4.43;;;1.97;;
9076;SDS011;4574;51.072;17.174;2023-08-24T11:21:59;3.93;;;1.90;;
9076;SDS011;4574;51.072;17.174;2023-08-24T11:24:30;1.90;;;1.70;;
9076;SDS011;4574;51.072;17.174;2023-08-24T11:26:59;8.33;;;2.27;;
9076;SDS011;4574;51.072;17.174;2023-08-24T11:29:30;3.57;;;1.90;;
9076;SDS011;4574;51.072;17.174;2023-08-24T11:31:59;4.33;;;1.90;;
9076;SDS011;4574;51.072;17.174;2023-08-24T11:34:27;2.37;;;1.80;;
9076;SDS011;4574;51.072;17.174;2023-08-24T11:36:56;2.80;;;2.10;;
9076;SDS011;4574;51.072;17.174;2023-08-24T11:39:26;3.73;;;1.80;;
9076;SDS011;4574;51.072;17.174;2023-08-24T11:41:59;2.53;;;1.93;;
9076;SDS011;4574;51.072;17.174;2023-08-24T11:44:29;3.37;;;2.10;;
9076;SDS011;4574;51.072;17.174;2023-08-24T11:47:12;4.63;;;1.97;;
9076;SDS011;4574;51.072;17.174;2023-08-24T11:49:41;2.43;;;1.80;;
9076;SDS011;4574;51.072;17.174;2023-08-24T11:52:09;5.63;;;1.63;;
9076;SDS011;4574;51.072;17.174;2023-08-24T11:54:39;5.27;;;1.70;;
9076;SDS011;4574;51.072;17.174;2023-08-24T11:57:09;2.93;;;2.00;;
9076;SDS011;4574;51.072;17.174;2023-08-24T11:59:38;2.97;;;1.80;;
9076;SDS011;4574;51.072;17.174;2023-08-24T12:02:08;1.87;;;1.60;;
9076;SDS011;4574;51.072;17.174;2023-08-24T12:04:38;3.37;;;1.97;;
9076;SDS011;4574;51.072;17.174;2023-08-24T12:07:10;2.03;;;1.50;;
9076;SDS011;4574;51.072;17.174;2023-08-24T12:09:40;2.93;;;1.80;;
9076;SDS011;4574;51.072;17.174;2023-08-24T12:12:13;1.90;;;1.70;;
9076;SDS011;4574;51.072;17.174;2023-08-24T12:14:42;3.50;;;1.80;;
9076;SDS011;4574;51.072;17.174;2023-08-24T12:17:11;2.00;;;1.77;;
9076;SDS011;4574;51.072;17.174;2023-08-24T12:19:41;3.07;;;1.60;;
9076;SDS011;4574;51.072;17.174;2023-08-24T12:22:12;9.57;;;2.13;;
9076;SDS011;4574;51.072;17.174;2023-08-24T12:24:46;3.27;;;1.73;;
9076;SDS011;4574;51.072;17.174;2023-08-24T12:27:18;3.83;;;1.70;;
9076;SDS011;4574;51.072;17.174;2023-08-24T12:29:47;1.90;;;1.80;;
9076;SDS011;4574;51.072;17.174;2023-08-24T12:32:16;2.30;;;1.60;;
9076;SDS011;4574;51.072;17.174;2023-08-24T12:34:46;1.87;;;1.50;;
9076;SDS011;4574;51.072;17.174;2023-08-24T12:37:15;4.63;;;1.63;;
9076;SDS011;4574;51.072;17.174;2023-08-24T12:39:43;2.20;;;1.67;;
9076;SDS011;4574;51.072;17.174;2023-08-24T12:42:15;3.20;;;1.80;;
9076;SDS011;4574;51.072;17.174;2023-08-24T12:44:43;1.70;;;1.60;;
9076;SDS011;4574;51.072;17.174;2023-08-24T12:47:12;4.53;;;1.70;;
9076;SDS011;4574;51.072;17.174;2023-08-24T12:49:40;1.73;;;1.60;;
9076;SDS011;4574;51.072;17.174;2023-08-24T12:52:09;2.50;;;1.80;;
9076;SDS011;4574;51.072;17.174;2023-08-24T12:54:38;2.80;;;1.50;;
9076;SDS011;4574;51.072;17.174;2023-08-24T12:57:07;1.80;;;1.50;;
9076;SDS011;4574;51.072;17.174;2023-08-24T12:59:36;1.67;;;1.50;;
9076;SDS011;4574;51.072;17.174;2023-08-24T13:02:05;3.63;;;1.63;;
9076;SDS011;4574;51.072;17.174;2023-08-24T13:04:33;3.27;;;1.83;;
9076;SDS011;4574;51.072;17.174;2023-08-24T13:07:02;1.80;;;1.70;;
9076;SDS011;4574;51.072;17.174;2023-08-24T13:09:31;3.07;;;1.70;;
9076;SDS011;4574;51.072;17.174;2023-08-24T13:12:00;3.43;;;2.10;;
9076;SDS011;4574;51.072;17.174;2023-08-24T13:14:30;3.90;;;1.73;;
9076;SDS011;4574;51.072;17.174;2023-08-24T13:16:59;3.50;;;1.70;;
9076;SDS011;4574;51.072;17.174;2023-08-24T13:19:27;3.50;;;1.67;;
9076;SDS011;4574;51.072;17.174;2023-08-24T13:21:57;1.90;;;1.60;;
9076;SDS011;4574;51.072;17.174;2023-08-24T13:24:25;3.53;;;1.67;;
9076;SDS011;4574;51.072;17.174;2023-08-24T13:26:54;2.87;;;1.50;;
9076;SDS011;4574;51.072;17.174;2023-08-24T13:29:22;1.70;;;1.60;;
9076;SDS011;4574;51.072;17.174;2023-08-24T13:31:52;4.80;;;1.80;;
9076;SDS011;4574;51.072;17.174;2023-08-24T13:34:20;2.93;;;1.63;;
9076;SDS011;4574;51.072;17.174;2023-08-24T13:36:49;4.60;;;1.80;;
9076;SDS011;4574;51.072;17.174;2023-08-24T13:39:17;4.67;;;1.60;;
9076;SDS011;4574;51.072;17.174;2023-08-24T13:41:46;1.93;;;1.67;;
9076;SDS011;4574;51.072;17.174;2023-08-24T13:44:14;2.83;;;1.70;;
9076;SDS011;4574;51.072;17.174;2023-08-24T13:46:43;3.90;;;1.50;;
9076;SDS011;4574;51.072;17.174;2023-08-24T13:49:13;2.93;;;1.50;;
9076;SDS011;4574;51.072;17.174;2023-08-24T13:52:02;2.03;;;1.63;;
9076;SDS011;4574;51.072;17.174;2023-08-24T13:54:31;5.13;;;1.80;;
9076;SDS011;4574;51.072;17.174;2023-08-24T13:56:59;5.90;;;2.10;;
9076;SDS011;4574;51.072;17.174;2023-08-24T13:59:28;2.13;;;1.70;;
9076;SDS011;4574;51.072;17.174;2023-08-24T14:01:57;4.20;;;1.63;;
9076;SDS011;4574;51.072;17.174;2023-08-24T14:04:27;2.53;;;1.53;;
9076;SDS011;4574;51.072;17.174;2023-08-24T14:06:55;2.10;;;1.40;;
9076;SDS011;4574;51.072;17.174;2023-08-24T14:09:24;3.03;;;1.93;;
9076;SDS011;4574;51.072;17.174;2023-08-24T14:11:52;2.83;;;1.70;;
9076;SDS011;4574;51.072;17.174;2023-08-24T14:14:21;1.80;;;1.63;;
9076;SDS011;4574;51.072;17.174;2023-08-24T14:16:53;2.00;;;1.70;;
9076;SDS011;4574;51.072;17.174;2023-08-24T14:19:23;1.50;;;1.40;;
9076;SDS011;4574;51.072;17.174;2023-08-24T14:21:53;3.73;;;2.00;;
9076;SDS011;4574;51.072;17.174;2023-08-24T14:24:22;3.10;;;1.80;;
9076;SDS011;4574;51.072;17.174;2023-08-24T14:26:53;4.70;;;1.90;;
9076;SDS011;4574;51.072;17.174;2023-08-24T14:29:22;3.00;;;1.80;;
9076;SDS011;4574;51.072;17.174;2023-08-24T14:31:50;2.43;;;2.00;;
9076;SDS011;4574;51.072;17.174;2023-08-24T14:34:19;2.47;;;1.73;;
9076;SDS011;4574;51.072;17.174;2023-08-24T14:36:47;4.70;;;2.50;;
9076;SDS011;4574;51.072;17.174;2023-08-24T14:39:18;1.47;;;1.37;;
9076;SDS011;4574;51.072;17.174;2023-08-24T14:41:47;2.43;;;1.80;;
9076;SDS011;4574;51.072;17.174;2023-08-24T14:44:15;3.00;;;2.00;;
9076;SDS011;4574;51.072;17.174;2023-08-24T14:46:44;2.87;;;1.90;;
9076;SDS011;4574;51.072;17.174;2023-08-24T14:49:13;5.37;;;1.83;;
9076;SDS011;4574;51.072;17.174;2023-08-24T14:51:45;3.97;;;1.97;;
9076;SDS011;4574;51.072;17.174;2023-08-24T14:54:15;3.57;;;2.00;;
9076;SDS011;4574;51.072;17.174;2023-08-24T14:56:45;2.63;;;1.60;;
9076;SDS011;4574;51.072;17.174;2023-08-24T14:59:14;2.77;;;1.97;;
9076;SDS011;4574;51.072;17.174;2023-08-24T15:01:43;6.70;;;2.20;;
9076;SDS011;4574;51.072;17.174;2023-08-24T15:04:12;2.17;;;1.60;;
9076;SDS011;4574;51.072;17.174;2023-08-24T15:06:40;3.03;;;1.87;;
9076;SDS011;4574;51.072;17.174;2023-08-24T15:09:08;3.20;;;1.80;;
9076;SDS011;4574;51.072;17.174;2023-08-24T15:11:37;2.47;;;1.90;;
9076;SDS011;4574;51.072;17.174;2023-08-24T15:14:07;2.53;;;1.73;;
9076;SDS011;4574;51.072;17.174;2023-08-24T15:16:36;2.23;;;1.70;;